createdAt,value
2022-09-20T00:00:48.465Z,9.30
2022-09-20T00:03:16.751Z,9.40
2022-09-20T00:05:45.699Z,9.30
2022-09-20T00:08:15.477Z,9.30
2022-09-20T00:10:43.174Z,9.30
2022-09-20T00:13:12.818Z,9.30
2022-09-20T00:15:44.447Z,9.30
2022-09-20T00:18:11.944Z,9.40
2022-09-20T00:20:46.180Z,9.30
2022-09-20T00:23:13.189Z,9.40
2022-09-20T00:25:39.882Z,9.30
2022-09-20T00:28:07.137Z,9.50
2022-09-20T00:30:34.670Z,9.40
2022-09-20T00:33:01.621Z,9.40
2022-09-20T00:35:29.598Z,9.30
2022-09-20T00:37:56.564Z,9.40
2022-09-20T00:40:24.632Z,9.40
2022-09-20T00:42:51.275Z,9.40
2022-09-20T00:45:25.506Z,9.40
2022-09-20T00:48:10.280Z,9.40
2022-09-20T00:50:44.092Z,9.30
2022-09-20T00:53:26.358Z,9.30
2022-09-20T00:56:04.010Z,9.40
2022-09-20T00:58:35.468Z,9.40
2022-09-20T01:01:04.535Z,9.40
2022-09-20T01:03:33.655Z,9.40
2022-09-20T01:06:05.546Z,9.30
2022-09-20T01:08:33.908Z,9.30
2022-09-20T01:11:00.985Z,9.30
2022-09-20T01:13:27.646Z,9.30
2022-09-20T01:15:55.355Z,9.20
2022-09-20T01:18:23.359Z,9.30
2022-09-20T01:20:50.765Z,9.30
2022-09-20T01:23:29.795Z,9.30
2022-09-20T01:26:19.425Z,9.30
2022-09-20T01:28:48.361Z,9.30
2022-09-20T01:31:34.207Z,9.20
2022-09-20T01:34:14.239Z,9.30
2022-09-20T01:36:48.694Z,9.20
2022-09-20T01:39:36.604Z,9.30
2022-09-20T01:42:09.944Z,9.20
2022-09-20T01:45:00.656Z,9.20
2022-09-20T01:47:33.424Z,9.10
2022-09-20T01:50:21.450Z,9.10
2022-09-20T01:53:22.347Z,9.10
2022-09-20T01:56:13.855Z,9.00
2022-09-20T01:59:23.742Z,9.10
2022-09-20T02:01:54.200Z,9.10
2022-09-20T02:05:06.245Z,9.10
2022-09-20T02:07:44.543Z,9.10
2022-09-20T02:10:35.327Z,9.10
2022-09-20T02:13:14.992Z,9.10
2022-09-20T02:15:56.832Z,9.20
2022-09-20T02:18:32.704Z,9.10
2022-09-20T02:21:03.749Z,9.10
2022-09-20T02:23:33.246Z,9.10
2022-09-20T02:26:10.813Z,9.10
2022-09-20T02:28:59.583Z,9.10
2022-09-20T02:32:04.517Z,9.10
2022-09-20T02:35:06.648Z,9.10
2022-09-20T02:37:45.312Z,9.10
2022-09-20T02:40:33.461Z,9.10
2022-09-20T02:43:22.100Z,9.10
2022-09-20T02:46:13.673Z,9.00
2022-09-20T02:48:59.507Z,9.00
2022-09-20T02:52:01.638Z,9.00
2022-09-20T02:54:53.867Z,9.00
2022-09-20T02:57:42.078Z,9.00
2022-09-20T03:00:21.682Z,9.00
2022-09-20T03:03:15.175Z,8.90
2022-09-20T03:06:08.213Z,8.90
2022-09-20T03:08:56.256Z,9.00
2022-09-20T03:11:38.344Z,8.90
2022-09-20T03:14:24.391Z,8.90
2022-09-20T03:17:03.553Z,8.90
2022-09-20T03:19:53.004Z,8.90
2022-09-20T03:23:08.888Z,8.80
2022-09-20T03:25:47.978Z,8.80
2022-09-20T03:28:23.709Z,8.80
2022-09-20T03:31:04.458Z,8.70
2022-09-20T03:33:46.244Z,8.70
2022-09-20T03:36:32.767Z,8.70
2022-09-20T03:39:11.146Z,8.70
2022-09-20T03:41:46.535Z,8.60
2022-09-20T03:44:36.623Z,8.60
2022-09-20T03:47:19.389Z,8.60
2022-09-20T03:50:11.901Z,8.60
2022-09-20T03:53:09.516Z,8.60
2022-09-20T03:55:47.147Z,8.50
2022-09-20T03:58:29.041Z,8.50
2022-09-20T04:01:02.002Z,8.50
2022-09-20T04:03:38.525Z,8.40
2022-09-20T04:06:16.466Z,8.50
2022-09-20T04:08:51.838Z,8.50
2022-09-20T04:11:37.383Z,8.40
2022-09-20T04:14:11.731Z,8.40
2022-09-20T04:17:01.561Z,8.30
2022-09-20T04:19:42.626Z,8.30
2022-09-20T04:22:12.692Z,8.20
2022-09-20T04:25:12.141Z,8.30
2022-09-20T04:27:44.524Z,8.20
2022-09-20T04:30:19.280Z,8.30
2022-09-20T04:33:20.479Z,8.20
2022-09-20T04:36:08.713Z,8.20
2022-09-20T04:38:36.050Z,8.20
2022-09-20T04:41:39.080Z,8.20
2022-09-20T04:44:33.078Z,8.20
2022-09-20T04:47:21.718Z,8.20
2022-09-20T04:50:26.314Z,8.20
2022-09-20T04:53:34.438Z,8.20
2022-09-20T04:56:15.068Z,8.30
2022-09-20T04:58:49.163Z,8.30
2022-09-20T05:01:43.516Z,8.30
2022-09-20T05:04:48.938Z,8.30
2022-09-20T05:07:56.024Z,8.30
2022-09-20T05:10:35.965Z,8.40
2022-09-20T05:13:31.262Z,8.40
2022-09-20T05:16:01.958Z,8.40
2022-09-20T05:18:47.524Z,8.40
2022-09-20T05:21:49.919Z,8.50
2022-09-20T05:24:31.670Z,8.50
2022-09-20T05:27:29.837Z,8.50
2022-09-20T05:30:06.420Z,8.50
2022-09-20T05:32:55.577Z,8.60
2022-09-20T05:35:31.151Z,8.60
2022-09-20T05:38:16.868Z,8.60
2022-09-20T05:40:59.927Z,8.60
2022-09-20T05:43:38.040Z,8.50
2022-09-20T05:46:35.033Z,8.60
2022-09-20T05:49:18.156Z,8.60
2022-09-20T05:52:38.950Z,8.70
2022-09-20T05:55:29.516Z,8.70
2022-09-20T05:58:12.636Z,8.70
2022-09-20T06:00:46.707Z,8.80
2022-09-20T06:03:37.239Z,8.80
2022-09-20T06:06:28.072Z,8.70
2022-09-20T06:09:07.262Z,8.80
2022-09-20T06:12:25.553Z,8.80
2022-09-20T06:15:04.684Z,8.80
2022-09-20T06:17:38.691Z,8.80
2022-09-20T06:20:23.965Z,8.90
2022-09-20T06:22:56.914Z,8.90
2022-09-20T06:25:31.067Z,8.90
2022-09-20T06:28:13.100Z,8.80
2022-09-20T06:30:43.901Z,8.90
2022-09-20T06:33:19.380Z,8.90
2022-09-20T06:36:29.929Z,8.80
2022-09-20T06:39:24.293Z,8.90
2022-09-20T06:41:51.369Z,9.00
2022-09-20T06:44:19.496Z,8.90
2022-09-20T06:46:46.120Z,9.00
2022-09-20T06:49:12.783Z,9.00
2022-09-20T06:51:39.967Z,9.00
2022-09-20T06:54:11.299Z,9.00
2022-09-20T06:56:38.358Z,9.00
2022-09-20T06:59:11.609Z,9.00
2022-09-20T07:01:39.081Z,9.10
2022-09-20T07:04:15.045Z,9.10
2022-09-20T07:06:41.859Z,9.10
2022-09-20T07:09:11.465Z,9.20
2022-09-20T07:11:38.077Z,9.20
2022-09-20T07:14:05.359Z,9.20
2022-09-20T07:16:32.595Z,9.30
2022-09-20T07:19:00.367Z,9.30
2022-09-20T07:21:27.132Z,9.40
2022-09-20T07:23:53.927Z,9.50
2022-09-20T07:26:29.199Z,9.50
2022-09-20T07:28:57.421Z,9.50
2022-09-20T07:31:26.300Z,9.60
2022-09-20T07:33:53.124Z,9.60
2022-09-20T07:36:20.085Z,9.80
2022-09-20T07:38:52.298Z,10.00
2022-09-20T07:41:20.098Z,10.10
2022-09-20T07:43:47.116Z,10.20
2022-09-20T07:46:13.900Z,10.10
2022-09-20T07:48:41.269Z,10.20
2022-09-20T07:51:11.687Z,10.20
2022-09-20T07:53:39.307Z,10.20
2022-09-20T07:56:10.234Z,10.10
2022-09-20T07:58:37.057Z,10.10
2022-09-20T08:01:13.270Z,10.10
2022-09-20T08:03:40.366Z,10.10
2022-09-20T08:06:10.611Z,10.00
2022-09-20T08:08:39.929Z,10.20
2022-09-20T08:11:08.927Z,10.30
2022-09-20T08:16:32.093Z,10.20
2022-09-20T08:19:01.304Z,10.20
2022-09-20T08:21:33.875Z,10.40
2022-09-20T08:24:01.279Z,10.30
2022-09-20T08:26:29.159Z,10.40
2022-09-20T08:28:58.613Z,10.40
2022-09-20T08:31:27.824Z,10.40
2022-09-20T08:33:54.846Z,10.40
2022-09-20T08:36:25.581Z,10.20
2022-09-20T08:41:55.554Z,10.20
2022-09-20T08:44:58.463Z,10.30
2022-09-20T08:47:35.596Z,10.20
2022-09-20T08:50:11.430Z,10.20
2022-09-20T08:52:40.597Z,10.30
2022-09-20T08:55:19.763Z,10.30
2022-09-20T08:57:52.867Z,10.40
2022-09-20T09:00:23.692Z,10.60
2022-09-20T09:02:54.658Z,10.80
2022-09-20T09:05:38.874Z,11.00
2022-09-20T09:08:21.214Z,11.10
2022-09-20T09:10:57.741Z,11.20
2022-09-20T09:13:46.998Z,11.40
2022-09-20T09:16:23.157Z,11.50
2022-09-20T09:18:53.331Z,11.40
2022-09-20T09:21:23.542Z,11.50
2022-09-20T09:24:08.147Z,11.40
2022-09-20T09:26:43.261Z,11.60
2022-09-20T09:29:22.807Z,11.60
2022-09-20T09:31:52.819Z,11.60
2022-09-20T09:34:22.963Z,11.50
2022-09-20T09:36:49.570Z,11.30
2022-09-20T09:39:26.762Z,11.20
2022-09-20T09:41:59.165Z,11.30
2022-09-20T09:44:28.524Z,11.10
2022-09-20T09:46:57.217Z,11.20
2022-09-20T09:49:35.800Z,11.20
2022-09-20T09:52:15.861Z,11.40
2022-09-20T09:54:48.646Z,11.30
2022-09-20T09:57:41.981Z,11.50
2022-09-20T10:00:21.201Z,11.60
2022-09-20T10:03:05.533Z,11.60
2022-09-20T10:05:39.259Z,11.80
2022-09-20T10:08:36.365Z,12.00
2022-09-20T10:11:14.267Z,12.00
2022-09-20T10:14:28.202Z,12.00
2022-09-20T10:17:12.649Z,12.00
2022-09-20T10:19:48.773Z,12.00
2022-09-20T10:22:41.788Z,12.30
2022-09-20T10:25:17.628Z,12.50
2022-09-20T10:28:08.490Z,12.90
2022-09-20T10:30:45.642Z,13.10
2022-09-20T10:33:27.989Z,13.40
2022-09-20T10:36:20.975Z,13.60
2022-09-20T10:39:13.318Z,14.00
2022-09-20T10:42:11.489Z,14.10
2022-09-20T10:44:53.003Z,14.30
2022-09-20T10:47:28.786Z,14.50
2022-09-20T10:50:30.454Z,14.50
2022-09-20T10:53:25.797Z,14.60
2022-09-20T10:55:59.735Z,14.70
2022-09-20T10:59:04.031Z,14.70
2022-09-20T11:01:54.843Z,14.70
2022-09-20T11:04:40.261Z,14.90
2022-09-20T11:07:09.844Z,14.50
2022-09-20T11:09:42.190Z,14.30
2022-09-20T11:12:32.258Z,14.20
2022-09-20T11:15:04.774Z,14.20
2022-09-20T11:17:43.865Z,14.80
2022-09-20T11:20:22.222Z,14.80
2022-09-20T11:23:19.690Z,15.20
2022-09-20T11:25:52.565Z,15.30
2022-09-20T11:28:36.417Z,15.30
2022-09-20T11:31:21.950Z,15.40
2022-09-20T11:33:53.901Z,15.60
2022-09-20T11:36:33.463Z,15.80
2022-09-20T11:39:05.885Z,16.20
2022-09-20T11:41:33.359Z,16.40
2022-09-20T11:44:16.531Z,16.50
2022-09-20T11:47:00.218Z,16.30
2022-09-20T11:49:37.023Z,15.70
2022-09-20T11:52:17.291Z,15.50
2022-09-20T11:54:54.621Z,15.10
2022-09-20T11:57:22.964Z,15.00
2022-09-20T11:59:56.537Z,14.90
2022-09-20T12:02:38.360Z,14.30
2022-09-20T12:05:13.761Z,14.10
2022-09-20T12:07:44.086Z,13.80
2022-09-20T12:10:34.046Z,13.40
2022-09-20T12:13:18.810Z,13.00
2022-09-20T12:15:46.272Z,12.80
2022-09-20T12:18:34.143Z,12.60
2022-09-20T12:21:04.579Z,12.40
2022-09-20T12:23:40.540Z,12.20
2022-09-20T12:26:20.397Z,12.20
2022-09-20T12:28:51.284Z,12.30
2022-09-20T12:31:31.813Z,12.00
2022-09-20T12:34:02.266Z,11.90
2022-09-20T12:36:35.989Z,11.90
2022-09-20T12:39:11.643Z,12.00
2022-09-20T12:42:02.973Z,12.10
2022-09-20T12:44:50.957Z,12.20
2022-09-20T12:47:25.091Z,12.00
2022-09-20T12:50:13.341Z,12.00
2022-09-20T12:53:01.283Z,12.00
2022-09-20T12:55:33.609Z,12.20
2022-09-20T12:58:14.715Z,12.20
2022-09-20T13:00:48.051Z,12.40
2022-09-20T13:03:36.405Z,12.40
2022-09-20T13:06:06.448Z,12.60
2022-09-20T13:08:43.145Z,12.50
2022-09-20T13:11:29.173Z,12.70
2022-09-20T13:14:05.426Z,12.90
2022-09-20T13:16:53.588Z,13.00
2022-09-20T13:19:37.997Z,13.00
2022-09-20T13:22:23.101Z,13.10
2022-09-20T13:24:59.833Z,13.30
2022-09-20T13:27:34.464Z,13.50
2022-09-20T13:30:21.918Z,13.70
2022-09-20T13:32:50.125Z,14.00
2022-09-20T13:35:22.309Z,14.10
2022-09-20T13:37:58.271Z,14.00
2022-09-20T13:40:45.456Z,13.90
2022-09-20T13:43:24.103Z,13.90
2022-09-20T13:45:59.532Z,13.90
2022-09-20T13:48:27.362Z,13.90
2022-09-20T13:50:55.226Z,13.80
2022-09-20T13:53:40.724Z,13.70
2022-09-20T13:56:42.581Z,13.60
2022-09-20T13:59:19.388Z,13.80
2022-09-20T14:01:54.592Z,14.10
2022-09-20T14:04:25.467Z,14.20
2022-09-20T14:06:54.634Z,14.30
2022-09-20T14:09:30.870Z,14.50
2022-09-20T14:11:59.337Z,14.80
2022-09-20T14:14:27.492Z,14.70
2022-09-20T14:16:56.382Z,14.70
2022-09-20T14:19:32.692Z,14.80
2022-09-20T14:22:03.891Z,14.60
2022-09-20T14:24:35.384Z,14.50
2022-09-20T14:27:20.227Z,14.30
2022-09-20T14:29:48.930Z,14.00
2022-09-20T14:32:18.746Z,14.00
2022-09-20T14:34:56.975Z,14.30
2022-09-20T14:37:45.642Z,14.60
2022-09-20T14:40:29.219Z,14.70
2022-09-20T14:43:07.366Z,15.00
2022-09-20T14:45:37.595Z,15.20
2022-09-20T14:48:35.371Z,15.20
2022-09-20T14:51:28.555Z,15.00
2022-09-20T14:54:04.418Z,15.00
2022-09-20T14:56:40.029Z,14.80
2022-09-20T14:59:13.877Z,14.80
2022-09-20T15:01:44.913Z,14.50
2022-09-20T15:04:26.803Z,14.30
2022-09-20T15:06:54.284Z,14.10
2022-09-20T15:09:21.892Z,13.90
2022-09-20T15:12:12.357Z,13.60
2022-09-20T15:14:42.146Z,13.60
2022-09-20T15:17:18.406Z,13.70
2022-09-20T15:19:50.070Z,13.60
2022-09-20T15:22:16.861Z,13.70
2022-09-20T15:24:44.029Z,13.70
2022-09-20T15:27:14.148Z,13.70
2022-09-20T15:29:41.077Z,13.40
2022-09-20T15:32:10.527Z,13.40
2022-09-20T15:34:40.065Z,13.30
2022-09-20T15:37:06.758Z,13.20
2022-09-20T15:39:34.207Z,13.10
2022-09-20T15:42:01.337Z,13.00
2022-09-20T15:44:28.378Z,13.10
2022-09-20T15:46:55.264Z,13.10
2022-09-20T15:49:21.990Z,13.30
2022-09-20T15:51:48.694Z,13.30
2022-09-20T15:54:15.812Z,13.40
2022-09-20T15:56:42.450Z,13.60
2022-09-20T15:59:11.225Z,13.70
2022-09-20T16:01:43.624Z,13.70
2022-09-20T16:04:15.734Z,13.50
2022-09-20T16:06:44.141Z,13.30
2022-09-20T16:09:10.891Z,13.30
2022-09-20T16:11:40.921Z,13.20
2022-09-20T16:14:10.280Z,13.10
2022-09-20T16:16:40.395Z,13.20
2022-09-20T16:19:17.285Z,13.30
2022-09-20T16:21:53.764Z,13.20
2022-09-20T16:24:25.974Z,13.00
2022-09-20T16:26:52.947Z,13.00
2022-09-20T16:29:21.952Z,13.10
2022-09-20T16:31:50.066Z,13.00
2022-09-20T16:34:21.541Z,13.00
2022-09-20T16:36:50.845Z,13.00
2022-09-20T16:39:19.120Z,13.00
2022-09-20T16:41:47.731Z,13.00
2022-09-20T16:44:15.608Z,12.90
2022-09-20T16:46:42.448Z,12.70
2022-09-20T16:49:11.477Z,12.70
2022-09-20T16:51:41.216Z,12.80
2022-09-20T16:54:13.310Z,12.80
2022-09-20T16:56:45.226Z,12.80
2022-09-20T16:59:13.739Z,12.80
2022-09-20T17:01:42.261Z,12.80
2022-09-20T17:04:09.989Z,12.80
2022-09-20T17:06:41.107Z,12.80
2022-09-20T17:09:08.118Z,12.80
2022-09-20T17:11:37.442Z,12.70
2022-09-20T17:14:05.084Z,12.60
2022-09-20T17:16:37.193Z,12.50
2022-09-20T17:19:11.794Z,12.50
2022-09-20T17:21:42.295Z,12.40
2022-09-20T17:24:09.269Z,12.40
2022-09-20T17:26:40.126Z,12.40
2022-09-20T17:29:09.713Z,12.40
2022-09-20T17:31:39.173Z,12.40
2022-09-20T17:34:08.411Z,12.30
2022-09-20T17:36:39.639Z,12.30
2022-09-20T17:39:09.834Z,12.30
2022-09-20T17:41:37.300Z,12.20
2022-09-20T17:44:11.769Z,12.10
2022-09-20T17:46:40.716Z,12.10
2022-09-20T17:49:10.802Z,11.90
2022-09-20T17:51:40.114Z,11.80
2022-09-20T17:54:08.316Z,11.70
2022-09-20T17:56:35.338Z,11.60
2022-09-20T17:59:03.965Z,11.50
2022-09-20T18:01:32.425Z,11.50
2022-09-20T18:04:01.045Z,11.30
2022-09-20T18:06:30.432Z,11.20
2022-09-20T18:09:02.603Z,11.20
2022-09-20T18:11:32.123Z,11.10
2022-09-20T18:13:59.752Z,11.00
2022-09-20T18:16:26.539Z,10.90
2022-09-20T18:18:53.483Z,10.80
2022-09-20T18:21:22.930Z,10.60
2022-09-20T18:23:50.329Z,10.40
2022-09-20T18:26:22.009Z,10.10
2022-09-20T18:29:04.597Z,10.10
2022-09-20T18:31:44.463Z,10.00
2022-09-20T18:34:15.427Z,10.00
2022-09-20T18:36:42.228Z,9.90
2022-09-20T18:39:09.353Z,9.70
2022-09-20T18:41:37.851Z,9.60
2022-09-20T18:44:07.474Z,9.60
2022-09-20T18:46:37.820Z,9.50
2022-09-20T18:49:10.097Z,9.40
2022-09-20T18:51:40.166Z,9.40
2022-09-20T18:54:11.476Z,9.40
2022-09-20T18:56:43.273Z,9.30
2022-09-20T18:59:19.410Z,9.30
2022-09-20T19:01:55.403Z,9.30
2022-09-20T19:04:43.827Z,9.30
2022-09-20T19:07:36.511Z,9.10
2022-09-20T19:10:06.137Z,9.00
2022-09-20T19:13:00.205Z,9.00
2022-09-20T19:16:07.168Z,8.90
2022-09-20T19:18:52.573Z,8.80
2022-09-20T19:21:22.796Z,8.60
2022-09-20T19:24:21.592Z,8.40
2022-09-20T19:26:48.507Z,8.40
2022-09-20T19:29:25.150Z,8.40
2022-09-20T19:31:55.431Z,8.40
2022-09-20T19:34:23.474Z,8.30
2022-09-20T19:37:18.433Z,8.20
2022-09-20T19:40:06.639Z,8.00
2022-09-20T19:43:17.930Z,7.90
2022-09-20T19:46:20.885Z,7.80
2022-09-20T19:49:00.019Z,7.70
2022-09-20T19:51:26.903Z,7.70
2022-09-20T19:53:55.262Z,7.60
2022-09-20T19:56:27.988Z,7.50
2022-09-20T19:58:56.233Z,7.60
2022-09-20T20:01:24.630Z,7.60
2022-09-20T20:03:55.726Z,7.70
2022-09-20T20:06:38.162Z,7.70
2022-09-20T20:09:19.003Z,7.50
2022-09-20T20:11:59.957Z,7.60
2022-09-20T20:14:37.061Z,7.50
2022-09-20T20:17:26.882Z,7.40
2022-09-20T20:20:16.486Z,7.30
2022-09-20T20:23:27.970Z,7.20
2022-09-20T20:26:00.023Z,7.10
2022-09-20T20:28:27.360Z,7.00
2022-09-20T20:30:59.136Z,6.90
2022-09-20T20:33:26.763Z,6.90
2022-09-20T20:35:58.290Z,6.90
2022-09-20T20:38:26.378Z,6.70
2022-09-20T20:41:05.022Z,6.80
2022-09-20T20:43:33.183Z,6.70
2022-09-20T20:45:59.874Z,6.70
2022-09-20T20:48:26.635Z,6.50
2022-09-20T20:51:04.915Z,6.40
2022-09-20T20:53:33.603Z,6.40
2022-09-20T20:56:09.539Z,6.40
2022-09-20T20:58:48.293Z,6.30
2022-09-20T21:01:19.510Z,6.30
2022-09-20T21:03:48.581Z,6.40
2022-09-20T21:06:16.335Z,6.30
2022-09-20T21:08:49.621Z,6.20
2022-09-20T21:11:25.583Z,6.10
2022-09-20T21:13:53.712Z,6.00
2022-09-20T21:16:26.485Z,6.00
2022-09-20T21:18:53.164Z,5.90
2022-09-20T21:21:32.469Z,6.00
2022-09-20T21:24:01.428Z,5.90
2022-09-20T21:26:31.884Z,5.80
2022-09-20T21:29:00.612Z,5.70
2022-09-20T21:31:30.187Z,5.70
2022-09-20T21:34:16.511Z,5.60
2022-09-20T21:36:44.528Z,5.60
2022-09-20T21:39:11.532Z,5.80
2022-09-20T21:41:39.203Z,5.90
2022-09-20T21:44:07.559Z,5.90
2022-09-20T21:46:41.889Z,5.80
2022-09-20T21:49:11.010Z,5.80
2022-09-20T21:51:41.264Z,5.80
2022-09-20T21:54:08.393Z,5.70
2022-09-20T21:56:36.636Z,5.60
2022-09-20T21:59:06.062Z,5.60
2022-09-20T22:01:35.579Z,5.70
2022-09-20T22:04:08.290Z,5.60
2022-09-20T22:06:39.989Z,5.60
2022-09-20T22:09:12.682Z,5.50
2022-09-20T22:11:44.148Z,5.30
2022-09-20T22:14:12.903Z,5.20
2022-09-20T22:16:41.520Z,5.20
2022-09-20T22:19:10.791Z,5.20
2022-09-20T22:21:40.142Z,5.20
2022-09-20T22:24:10.733Z,5.10
2022-09-20T22:26:42.035Z,5.00
2022-09-20T22:29:09.055Z,4.90
2022-09-20T22:31:38.844Z,4.80
2022-09-20T22:34:07.084Z,4.70
2022-09-20T22:36:39.152Z,4.80
2022-09-20T22:39:07.884Z,4.70
2022-09-20T22:41:37.356Z,4.70
2022-09-20T22:44:05.216Z,4.70
2022-09-20T22:46:32.747Z,4.90
2022-09-20T22:48:59.439Z,5.10
2022-09-20T22:51:28.885Z,5.10
2022-09-20T22:53:55.663Z,5.00
2022-09-20T22:56:31.087Z,5.00
2022-09-20T22:59:10.366Z,5.00
2022-09-20T23:01:41.143Z,4.90
2022-09-20T23:04:10.656Z,4.80
2022-09-20T23:06:44.524Z,4.80
2022-09-20T23:09:13.561Z,4.80
2022-09-20T23:11:43.877Z,4.80
2022-09-20T23:14:18.811Z,4.90
2022-09-20T23:16:45.833Z,4.80
2022-09-20T23:19:13.417Z,4.60
2022-09-20T23:21:41.834Z,4.50
2022-09-20T23:24:11.483Z,4.50
2022-09-20T23:26:39.734Z,4.40
2022-09-20T23:29:08.844Z,4.30
2022-09-20T23:31:37.540Z,4.30
2022-09-20T23:34:06.327Z,4.30
2022-09-20T23:36:35.449Z,4.20
2022-09-20T23:39:02.100Z,4.30
2022-09-20T23:41:29.582Z,4.40
2022-09-20T23:43:57.812Z,4.40
2022-09-20T23:46:26.261Z,4.20
2022-09-20T23:48:53.675Z,4.00
2022-09-20T23:51:23.352Z,4.00
2022-09-20T23:53:51.039Z,4.20
2022-09-20T23:56:18.796Z,4.30
2022-09-20T23:58:45.892Z,4.30
